首页
METAR-TAF:

METAR-TAF

机场 :

斯瓦尔巴朗伊尔机场

朗伊爾城, 挪威

纬度: 78-15N, 经度: 015-28E, 海拔: 2米

当前天气观测

该预报发布于1小时和30分钟前的18:50 UTC
风速8节,风向东转东南
温度 -9°C
湿度 73%
气压 1024 hPa
能见度10公里或以上
多云层高于2200英尺

METAR: ENSB 201850Z 11008KT 9999 BKN022 M09/M13 Q1024 RMK WIND 1400FT 15005KT

时间: 21:20 (20:20 UTC)

预报

预报有效从20日的 18点(UTC)到 21日的 18点(UTC)
风速8节,风向东南
能见度10公里或以上
少量云层高于1000英尺
多云层高于3000英尺

TAF: ENSB 2018/2118 13008KT 9999 FEW010 BKN030

超过4000个机场的气象观测和天气预报(METAR&TAF报告)。

可查询的气象台以黄色和红色小点在地图上表示。

将鼠标移到小点上方,可查看气象台名称。

然后点击查看天气观测和预报。

如需切换地图:点击带黑十字的绿色按钮放大地图;点击带横线的绿色按钮缩小地图;或者点击绿色箭头查看邻近地区的地图。


METAR-TAF: